createdAt,value
2022-09-14T00:01:36.602Z,70.96
2022-09-14T00:04:13.117Z,70.69
2022-09-14T00:06:41.106Z,70.77
2022-09-14T00:09:12.935Z,71.04
2022-09-14T00:11:41.396Z,71.23
2022-09-14T00:14:08.779Z,71.12
2022-09-14T00:16:40.786Z,70.95
2022-09-14T00:19:20.622Z,70.83
2022-09-14T00:21:53.563Z,70.89
2022-09-14T00:24:22.363Z,70.62
2022-09-14T00:26:50.213Z,70.83
2022-09-14T00:29:17.646Z,70.67
2022-09-14T00:31:45.482Z,71.15
2022-09-14T00:34:17.244Z,70.74
2022-09-14T00:36:47.576Z,70.75
2022-09-14T00:39:17.391Z,71.02
2022-09-14T00:41:48.446Z,70.64
2022-09-14T00:44:15.645Z,70.95
2022-09-14T00:46:46.963Z,70.83
2022-09-14T00:49:19.694Z,71.15
2022-09-14T00:51:58.488Z,71.34
2022-09-14T00:54:26.787Z,71.31
2022-09-14T00:56:56.168Z,71.30
2022-09-14T00:59:33.385Z,71.16
2022-09-14T01:02:00.771Z,71.32
2022-09-14T01:04:28.034Z,71.18
2022-09-14T01:07:03.675Z,71.48
2022-09-14T01:09:42.306Z,70.90
2022-09-14T01:12:32.498Z,71.26
2022-09-14T01:15:33.758Z,71.01
2022-09-14T01:18:21.553Z,71.02
2022-09-14T01:21:04.310Z,70.64
2022-09-14T01:24:12.357Z,70.84
2022-09-14T01:27:36.014Z,70.79
2022-09-14T01:30:05.447Z,70.81
2022-09-14T01:32:57.235Z,70.87
2022-09-14T01:35:38.378Z,71.02
2022-09-14T01:38:14.938Z,71.15
2022-09-14T01:40:49.615Z,71.13
2022-09-14T01:43:29.985Z,71.19
2022-09-14T01:46:05.659Z,71.29
2022-09-14T01:48:40.192Z,71.46
2022-09-14T01:51:13.829Z,71.50
2022-09-14T01:53:58.300Z,71.10
2022-09-14T01:56:39.064Z,71.33
2022-09-14T01:59:28.169Z,71.33
2022-09-14T02:02:09.292Z,71.37
2022-09-14T02:04:59.395Z,71.48
2022-09-14T02:07:26.754Z,71.81
2022-09-14T02:09:55.642Z,71.65
2022-09-14T02:12:23.668Z,71.78
2022-09-14T02:14:53.906Z,72.36
2022-09-14T02:17:21.620Z,72.23
2022-09-14T02:19:55.077Z,72.25
2022-09-14T02:22:23.148Z,72.41
2022-09-14T02:24:51.236Z,72.73
2022-09-14T02:27:18.535Z,72.29
2022-09-14T02:29:46.190Z,72.70
2022-09-14T02:32:27.982Z,73.01
2022-09-14T02:35:23.974Z,73.08
2022-09-14T02:38:21.981Z,73.20
2022-09-14T02:41:52.766Z,73.33
2022-09-14T02:44:37.606Z,73.60
2022-09-14T02:47:26.735Z,73.54
2022-09-14T02:50:19.253Z,74.17
2022-09-14T02:53:17.364Z,74.54
2022-09-14T02:55:51.781Z,74.24
2022-09-14T02:58:19.078Z,74.31
2022-09-14T03:00:49.535Z,74.41
2022-09-14T03:03:20.670Z,74.79
2022-09-14T03:05:48.165Z,75.14
2022-09-14T03:08:15.701Z,74.94
2022-09-14T03:10:44.680Z,75.00
2022-09-14T03:13:12.788Z,74.92
2022-09-14T03:15:40.447Z,74.87
2022-09-14T03:18:13.583Z,74.79
2022-09-14T03:20:41.457Z,74.53
2022-09-14T03:23:10.854Z,75.16
2022-09-14T03:25:41.479Z,74.99
2022-09-14T03:28:10.265Z,74.90
2022-09-14T03:30:37.507Z,74.83
2022-09-14T03:33:05.224Z,75.59
2022-09-14T03:35:33.280Z,75.70
2022-09-14T03:38:03.166Z,76.12
2022-09-14T03:40:31.097Z,75.82
2022-09-14T03:42:58.604Z,75.46
2022-09-14T03:45:26.282Z,75.11
2022-09-14T03:47:53.453Z,74.94
2022-09-14T03:50:20.825Z,74.82
2022-09-14T03:52:48.628Z,75.73
2022-09-14T03:55:16.436Z,75.54
2022-09-14T03:57:43.700Z,74.79
2022-09-14T04:00:12.303Z,75.11
2022-09-14T04:02:40.848Z,75.28
2022-09-14T04:05:08.642Z,75.36
2022-09-14T04:07:36.701Z,75.20
2022-09-14T04:10:05.980Z,75.41
2022-09-14T04:12:38.506Z,75.38
2022-09-14T04:15:09.832Z,75.56
2022-09-14T04:17:37.045Z,75.79
2022-09-14T04:20:04.717Z,76.32
2022-09-14T04:22:31.962Z,76.03
2022-09-14T04:24:59.157Z,76.91
2022-09-14T04:27:26.561Z,76.29
2022-09-14T04:29:53.866Z,77.06
2022-09-14T04:32:21.062Z,77.21
2022-09-14T04:34:49.893Z,77.32
2022-09-14T04:37:17.299Z,77.18
2022-09-14T04:39:44.607Z,77.37
2022-09-14T04:42:11.836Z,77.06
2022-09-14T04:44:39.088Z,76.46
2022-09-14T04:47:06.519Z,76.73
2022-09-14T04:49:33.775Z,75.92
2022-09-14T04:52:01.081Z,75.61
2022-09-14T04:54:28.502Z,75.50
2022-09-14T04:56:55.831Z,75.35
2022-09-14T04:59:23.125Z,75.74
2022-09-14T05:01:51.329Z,75.75
2022-09-14T05:04:18.756Z,75.75
2022-09-14T05:06:46.351Z,76.16
2022-09-14T05:09:19.090Z,76.46
2022-09-14T05:11:46.849Z,76.91
2022-09-14T05:14:15.180Z,77.47
2022-09-14T05:16:44.109Z,76.82
2022-09-14T05:19:18.312Z,77.46
2022-09-14T05:21:46.102Z,78.25
2022-09-14T05:24:19.014Z,78.35
2022-09-14T05:26:47.351Z,78.32
2022-09-14T05:29:17.501Z,77.98
2022-09-14T05:31:46.074Z,78.17
2022-09-14T05:34:13.791Z,78.37
2022-09-14T05:36:41.736Z,78.01
2022-09-14T05:39:09.620Z,77.84
2022-09-14T05:41:37.718Z,77.85
2022-09-14T05:44:06.273Z,77.54
2022-09-14T05:46:33.850Z,77.39
2022-09-14T05:49:01.097Z,77.08
2022-09-14T05:51:28.973Z,76.04
2022-09-14T05:53:58.318Z,77.01
2022-09-14T05:56:28.792Z,76.40
2022-09-14T05:58:56.562Z,76.52
2022-09-14T06:01:28.276Z,76.00
2022-09-14T06:03:58.024Z,76.05
2022-09-14T06:06:25.870Z,75.95
2022-09-14T06:08:55.725Z,75.95
2022-09-14T06:11:30.843Z,75.87
2022-09-14T06:13:58.577Z,76.04
2022-09-14T06:16:28.170Z,76.77
2022-09-14T06:18:57.917Z,76.89
2022-09-14T06:21:33.274Z,76.77
2022-09-14T06:24:00.937Z,77.11
2022-09-14T06:26:28.237Z,76.94
2022-09-14T06:28:55.539Z,78.17
2022-09-14T06:31:22.822Z,77.70
2022-09-14T06:33:51.918Z,78.46
2022-09-14T06:36:23.014Z,77.51
2022-09-14T06:38:51.174Z,77.92
2022-09-14T06:41:22.916Z,77.95
2022-09-14T06:43:51.215Z,77.15
2022-09-14T06:46:22.393Z,77.49
2022-09-14T06:49:20.614Z,77.83
2022-09-14T06:51:48.461Z,77.55
2022-09-14T06:54:17.430Z,77.99
2022-09-14T06:56:46.403Z,78.07
2022-09-14T06:59:16.842Z,78.43
2022-09-14T07:01:51.240Z,77.89
2022-09-14T07:04:19.017Z,77.50
2022-09-14T07:06:50.659Z,77.13
2022-09-14T07:09:19.812Z,78.25
2022-09-14T07:11:47.698Z,77.71
2022-09-14T07:14:15.089Z,77.80
2022-09-14T07:16:42.287Z,77.92
2022-09-14T07:19:15.000Z,78.14
2022-09-14T07:21:43.437Z,77.93
2022-09-14T07:24:14.928Z,78.89
2022-09-14T07:26:43.378Z,77.85
2022-09-14T07:29:17.139Z,77.47
2022-09-14T07:31:49.161Z,77.07
2022-09-14T07:34:17.683Z,78.08
2022-09-14T07:36:45.435Z,77.77
2022-09-14T07:39:17.113Z,78.09
2022-09-14T07:41:45.229Z,77.83
2022-09-14T07:44:17.333Z,78.01
2022-09-14T07:46:46.485Z,78.87
2022-09-14T07:49:15.631Z,79.04
2022-09-14T07:51:43.067Z,79.47
2022-09-14T07:54:13.644Z,79.19
2022-09-14T07:56:41.499Z,79.91
2022-09-14T07:59:34.581Z,79.20
2022-09-14T08:01:59.728Z,79.51
2022-09-14T08:04:27.067Z,79.21
2022-09-14T08:06:54.293Z,79.00
2022-09-14T08:09:21.530Z,79.00
2022-09-14T08:11:48.898Z,79.55
2022-09-14T08:14:16.226Z,80.59
2022-09-14T08:16:43.488Z,79.68
2022-09-14T08:19:17.162Z,78.71
2022-09-14T08:21:47.354Z,78.79
2022-09-14T08:24:19.967Z,78.60
2022-09-14T08:26:48.391Z,77.06
2022-09-14T08:29:17.954Z,78.41
2022-09-14T08:31:47.188Z,79.30
2022-09-14T08:34:16.466Z,78.35
2022-09-14T08:36:45.477Z,79.47
2022-09-14T08:39:15.502Z,78.79
2022-09-14T08:41:56.476Z,79.20
2022-09-14T08:44:55.056Z,79.12
2022-09-14T08:47:34.434Z,79.41
2022-09-14T08:50:27.959Z,81.13
2022-09-14T08:52:55.921Z,80.95
2022-09-14T08:55:35.760Z,80.96
2022-09-14T08:58:21.366Z,81.99
2022-09-14T09:01:15.933Z,82.09
2022-09-14T09:04:17.535Z,81.80
2022-09-14T09:07:11.992Z,81.33
2022-09-14T09:09:49.622Z,81.21
2022-09-14T09:12:37.454Z,80.18
2022-09-14T09:15:31.003Z,80.73
2022-09-14T09:18:20.765Z,82.06
2022-09-14T09:21:06.140Z,80.41
2022-09-14T09:23:35.417Z,80.52
2022-09-14T09:26:25.717Z,80.88
2022-09-14T09:28:57.274Z,80.02
2022-09-14T09:31:42.330Z,81.12
2022-09-14T09:34:16.266Z,81.89
2022-09-14T09:36:48.077Z,83.36
2022-09-14T09:39:16.554Z,81.58
2022-09-14T09:42:13.136Z,81.66
2022-09-14T09:45:03.694Z,82.26
2022-09-14T09:47:38.027Z,81.68
2022-09-14T09:50:26.348Z,80.81
2022-09-14T09:53:04.555Z,84.52
2022-09-14T09:55:40.563Z,83.87
2022-09-14T09:58:36.935Z,84.71
2022-09-14T10:01:36.626Z,83.91
2022-09-14T10:04:19.508Z,83.07
2022-09-14T10:06:54.413Z,85.83
2022-09-14T10:09:27.088Z,85.93
2022-09-14T10:12:01.915Z,87.74
2022-09-14T10:14:35.858Z,86.89
2022-09-14T10:17:17.260Z,85.34
2022-09-14T10:19:54.027Z,86.24
2022-09-14T10:22:38.251Z,85.14
2022-09-14T10:25:25.255Z,84.96
2022-09-14T10:27:55.227Z,83.34
2022-09-14T10:30:40.791Z,84.46
2022-09-14T10:33:13.219Z,83.48
2022-09-14T10:35:57.629Z,83.64
2022-09-14T10:38:24.796Z,84.34
2022-09-14T10:41:31.698Z,82.68
2022-09-14T10:44:22.659Z,82.62
2022-09-14T10:47:05.092Z,84.71
2022-09-14T10:50:15.842Z,85.31
2022-09-14T10:53:22.603Z,85.41
2022-09-14T10:55:53.338Z,87.44
2022-09-14T10:58:38.247Z,87.92
2022-09-14T11:01:11.117Z,88.92
2022-09-14T11:04:09.549Z,89.03
2022-09-14T11:06:42.822Z,87.64
2022-09-14T11:09:26.458Z,87.04
2022-09-14T11:12:15.125Z,88.24
2022-09-14T11:15:36.118Z,87.73
2022-09-14T11:18:32.355Z,89.15
2022-09-14T11:21:20.831Z,89.30
2022-09-14T11:24:18.982Z,88.10
2022-09-14T11:27:05.285Z,89.19
2022-09-14T11:29:51.473Z,89.12
2022-09-14T11:32:22.291Z,89.21
2022-09-14T11:35:04.143Z,88.93
2022-09-14T11:37:53.023Z,88.19
2022-09-14T11:40:46.995Z,88.10
2022-09-14T11:43:35.161Z,86.37
2022-09-14T11:46:08.879Z,85.43
2022-09-14T11:49:34.439Z,86.06
2022-09-14T11:52:33.156Z,86.89
2022-09-14T11:55:02.422Z,86.64
2022-09-14T11:57:32.552Z,86.32
2022-09-14T12:00:10.126Z,87.26
2022-09-14T12:02:37.351Z,86.71
2022-09-14T12:05:07.281Z,87.67
2022-09-14T12:07:43.008Z,87.74
2022-09-14T12:10:20.991Z,88.03
2022-09-14T12:12:54.931Z,88.19
2022-09-14T12:15:34.153Z,86.42
2022-09-14T12:18:07.105Z,86.50
2022-09-14T12:21:05.584Z,86.39
2022-09-14T12:23:44.716Z,85.94
2022-09-14T12:26:12.239Z,86.28
2022-09-14T12:28:43.583Z,86.48
2022-09-14T12:31:39.895Z,85.51
2022-09-14T12:34:23.251Z,85.54
2022-09-14T12:36:50.370Z,85.52
2022-09-14T12:39:30.642Z,84.75
2022-09-14T12:42:00.987Z,85.98
2022-09-14T12:44:52.655Z,86.33
2022-09-14T12:47:26.057Z,86.00
2022-09-14T12:50:00.595Z,86.69
2022-09-14T12:53:02.055Z,88.39
2022-09-14T12:55:43.495Z,86.78
2022-09-14T12:58:38.029Z,85.59
2022-09-14T13:01:20.228Z,86.45
2022-09-14T13:03:49.727Z,88.02
2022-09-14T13:06:18.286Z,88.13
2022-09-14T13:08:54.185Z,88.49
2022-09-14T13:14:32.287Z,88.38
2022-09-14T13:17:05.314Z,89.62
2022-09-14T13:19:34.868Z,89.32
2022-09-14T13:22:03.243Z,89.13
2022-09-14T13:24:45.620Z,89.64
2022-09-14T13:27:26.563Z,88.95
2022-09-14T13:30:05.139Z,89.50
2022-09-14T13:32:36.226Z,88.91
2022-09-14T13:35:15.150Z,87.50
2022-09-14T13:37:46.271Z,88.99
2022-09-14T13:40:15.540Z,86.70
2022-09-14T13:42:43.271Z,87.38
2022-09-14T13:45:14.158Z,85.30
2022-09-14T13:47:42.302Z,86.10
2022-09-14T13:50:12.316Z,85.46
2022-09-14T13:53:02.437Z,86.10
2022-09-14T13:55:43.476Z,86.05
2022-09-14T13:58:21.228Z,85.10
2022-09-14T14:00:56.925Z,86.40
2022-09-14T14:03:41.818Z,86.21
2022-09-14T14:06:32.799Z,87.42
2022-09-14T14:09:06.762Z,87.72
2022-09-14T14:11:37.143Z,85.91
2022-09-14T14:14:30.174Z,86.36
2022-09-14T14:17:32.915Z,85.29
2022-09-14T14:20:24.113Z,84.67
2022-09-14T14:23:08.613Z,86.51
2022-09-14T14:25:46.086Z,87.43
2022-09-14T14:28:29.553Z,87.71
2022-09-14T14:30:59.558Z,86.29
2022-09-14T14:33:27.172Z,87.59
2022-09-14T14:35:56.657Z,88.26
2022-09-14T14:38:25.207Z,88.01
2022-09-14T14:40:56.073Z,88.46
2022-09-14T14:43:26.097Z,87.75
2022-09-14T14:46:02.429Z,86.40
2022-09-14T14:48:31.580Z,87.25
2022-09-14T14:50:59.053Z,87.81
2022-09-14T14:53:26.996Z,87.58
2022-09-14T14:55:54.392Z,87.26
2022-09-14T14:58:23.630Z,88.28
2022-09-14T15:00:51.998Z,88.73
2022-09-14T15:03:19.522Z,89.31
2022-09-14T15:05:48.729Z,88.10
2022-09-14T15:08:20.166Z,88.87
2022-09-14T15:10:49.728Z,87.63
2022-09-14T15:13:16.968Z,87.41
2022-09-14T15:15:45.098Z,87.16
2022-09-14T15:18:12.435Z,87.13
2022-09-14T15:20:39.778Z,87.80
2022-09-14T15:23:07.093Z,88.21
2022-09-14T15:25:34.312Z,88.55
2022-09-14T15:28:01.713Z,88.48
2022-09-14T15:30:28.988Z,89.23
2022-09-14T15:32:56.260Z,89.80
2022-09-14T15:35:23.458Z,90.31
2022-09-14T15:37:50.720Z,89.61
2022-09-14T15:40:18.014Z,89.20
2022-09-14T15:42:45.371Z,88.50
2022-09-14T15:45:13.052Z,88.49
2022-09-14T15:47:42.925Z,89.03
2022-09-14T15:50:11.799Z,88.31
2022-09-14T15:52:40.255Z,87.37
2022-09-14T15:55:10.607Z,87.86
2022-09-14T15:57:39.111Z,87.41
2022-09-14T16:00:10.688Z,87.51
2022-09-14T16:02:38.202Z,87.96
2022-09-14T16:05:06.132Z,88.43
2022-09-14T16:07:33.374Z,88.88
2022-09-14T16:10:00.663Z,88.01
2022-09-14T16:12:28.018Z,88.61
2022-09-14T16:14:55.701Z,89.19
2022-09-14T16:17:22.939Z,89.42
2022-09-14T16:19:50.267Z,89.71
2022-09-14T16:22:17.605Z,89.45
2022-09-14T16:24:44.976Z,89.31
2022-09-14T16:27:12.198Z,88.92
2022-09-14T16:29:40.711Z,88.75
2022-09-14T16:32:08.071Z,88.87
2022-09-14T16:34:37.041Z,89.14
2022-09-14T16:37:04.665Z,88.60
2022-09-14T16:39:34.877Z,89.22
2022-09-14T16:42:02.616Z,89.26
2022-09-14T16:44:30.699Z,89.71
2022-09-14T16:46:59.298Z,89.63
2022-09-14T16:49:28.507Z,90.36
2022-09-14T16:51:57.381Z,90.09
2022-09-14T16:54:26.136Z,90.40
2022-09-14T16:56:59.326Z,90.34
2022-09-14T16:59:27.972Z,90.29
2022-09-14T17:01:55.715Z,90.09
2022-09-14T17:04:24.735Z,90.19
2022-09-14T17:06:53.332Z,90.40
2022-09-14T17:09:29.769Z,90.61
2022-09-14T17:11:58.788Z,90.66
2022-09-14T17:14:30.706Z,90.82
2022-09-14T17:16:59.220Z,91.50
2022-09-14T17:19:27.591Z,91.33
2022-09-14T17:21:55.033Z,91.48
2022-09-14T17:24:23.202Z,91.07
2022-09-14T17:26:50.869Z,91.14
2022-09-14T17:29:19.515Z,91.47
2022-09-14T17:31:47.222Z,91.29
2022-09-14T17:34:17.177Z,91.49
2022-09-14T17:36:45.636Z,92.20
2022-09-14T17:39:15.526Z,91.47
2022-09-14T17:41:44.164Z,91.32
2022-09-14T17:44:14.130Z,90.96
2022-09-14T17:46:51.682Z,91.45
2022-09-14T17:49:23.071Z,91.51
2022-09-14T17:51:51.399Z,91.64
2022-09-14T17:54:20.057Z,91.81
2022-09-14T17:56:47.374Z,91.55
2022-09-14T17:59:20.385Z,90.76
2022-09-14T18:01:49.540Z,90.65
2022-09-14T18:04:17.561Z,90.56
2022-09-14T18:06:48.468Z,90.22
2022-09-14T18:09:20.036Z,90.54
2022-09-14T18:11:49.070Z,91.35
2022-09-14T18:14:17.071Z,91.43
2022-09-14T18:16:45.347Z,90.84
2022-09-14T18:19:13.542Z,91.08
2022-09-14T18:21:41.286Z,90.58
2022-09-14T18:24:10.914Z,90.27
2022-09-14T18:26:41.130Z,90.74
2022-09-14T18:29:08.390Z,90.92
2022-09-14T18:31:35.725Z,90.74
2022-09-14T18:34:03.080Z,90.89
2022-09-14T18:36:30.705Z,91.05
2022-09-14T18:38:59.233Z,90.90
2022-09-14T18:41:32.449Z,90.56
2022-09-14T18:44:00.037Z,90.81
2022-09-14T18:46:28.734Z,90.92
2022-09-14T18:48:59.103Z,91.84
2022-09-14T18:51:28.595Z,91.45
2022-09-14T18:54:03.709Z,91.40
2022-09-14T18:56:34.485Z,91.60
2022-09-14T18:59:04.136Z,91.49
2022-09-14T19:01:31.850Z,91.74
2022-09-14T19:03:59.263Z,91.28
2022-09-14T19:06:26.661Z,91.07
2022-09-14T19:08:54.832Z,90.80
2022-09-14T19:11:29.371Z,91.10
2022-09-14T19:14:01.673Z,90.71
2022-09-14T19:16:30.306Z,90.33
2022-09-14T19:18:57.711Z,90.30
2022-09-14T19:21:29.467Z,90.02
2022-09-14T19:24:03.169Z,90.42
2022-09-14T19:26:34.599Z,89.81
2022-09-14T19:29:03.888Z,90.01
2022-09-14T19:31:33.609Z,89.89
2022-09-14T19:34:02.692Z,89.49
2022-09-14T19:36:31.411Z,89.29
2022-09-14T19:39:03.132Z,89.33
2022-09-14T19:41:35.076Z,89.25
2022-09-14T19:44:09.726Z,89.39
2022-09-14T19:46:39.702Z,89.24
2022-09-14T19:49:20.628Z,89.43
2022-09-14T19:51:48.971Z,89.68
2022-09-14T19:54:17.061Z,89.72
2022-09-14T19:56:46.192Z,89.74
2022-09-14T19:59:14.436Z,89.77
2022-09-14T20:01:42.112Z,89.89
2022-09-14T20:04:10.896Z,89.25
2022-09-14T20:06:42.723Z,88.73
2022-09-14T20:09:20.413Z,89.38
2022-09-14T20:11:50.506Z,89.08
2022-09-14T20:14:22.306Z,89.17
2022-09-14T20:16:54.767Z,89.62
2022-09-14T20:19:29.021Z,89.66
2022-09-14T20:21:56.714Z,89.89
2022-09-14T20:24:27.512Z,89.89
2022-09-14T20:27:02.195Z,90.43
2022-09-14T20:29:34.102Z,90.17
2022-09-14T20:32:03.327Z,90.56
2022-09-14T20:34:30.815Z,90.46
2022-09-14T20:37:01.578Z,90.37
2022-09-14T20:39:29.633Z,90.12
2022-09-14T20:41:57.287Z,90.74
2022-09-14T20:44:24.555Z,90.68
2022-09-14T20:46:52.387Z,90.63
2022-09-14T20:49:22.532Z,90.81
2022-09-14T20:51:52.643Z,91.15
2022-09-14T20:54:20.069Z,91.21
2022-09-14T20:56:47.510Z,91.64
2022-09-14T20:59:18.830Z,92.18
2022-09-14T21:01:49.530Z,92.76
2022-09-14T21:04:23.281Z,93.71
2022-09-14T21:06:54.701Z,93.59
2022-09-14T21:09:24.895Z,94.39
2022-09-14T21:11:53.248Z,94.65
2022-09-14T21:14:22.246Z,95.26
2022-09-14T21:16:55.137Z,95.23
2022-09-14T21:19:27.521Z,95.14
2022-09-14T21:21:55.468Z,95.01
2022-09-14T21:24:23.937Z,95.79
2022-09-14T21:26:51.487Z,96.53
2022-09-14T21:29:23.777Z,96.95
2022-09-14T21:31:52.268Z,97.24
2022-09-14T21:34:19.721Z,97.02
2022-09-14T21:36:51.315Z,97.29
2022-09-14T21:39:24.919Z,97.69
2022-09-14T21:41:58.892Z,98.21
2022-09-14T21:44:32.097Z,98.66
2022-09-14T21:47:00.557Z,98.18
2022-09-14T21:49:28.381Z,97.93
2022-09-14T21:51:55.615Z,98.13
2022-09-14T21:54:23.337Z,98.42
2022-09-14T21:56:50.571Z,98.72
2022-09-14T21:59:21.496Z,98.73
2022-09-14T22:01:49.911Z,98.91
2022-09-14T22:04:24.025Z,98.59
2022-09-14T22:06:51.763Z,98.88
2022-09-14T22:09:22.448Z,99.07
2022-09-14T22:11:49.896Z,99.49
2022-09-14T22:14:21.138Z,100.00
2022-09-14T22:16:50.063Z,99.95
2022-09-14T22:19:27.568Z,99.00
2022-09-14T22:21:55.681Z,99.68
2022-09-14T22:24:36.429Z,99.28
2022-09-14T22:27:09.978Z,98.37
2022-09-14T22:29:40.658Z,97.11
2022-09-14T22:32:11.204Z,98.11
2022-09-14T22:34:42.725Z,98.01
2022-09-14T22:37:11.933Z,97.35
2022-09-14T22:39:39.177Z,96.88
2022-09-14T22:42:07.082Z,96.81
2022-09-14T22:44:34.372Z,96.59
2022-09-14T22:47:01.503Z,96.36
2022-09-14T22:49:28.759Z,96.65
2022-09-14T22:51:55.965Z,95.97
2022-09-14T22:54:23.299Z,96.39
2022-09-14T22:56:50.520Z,96.77
2022-09-14T22:59:17.794Z,96.22
2022-09-14T23:01:45.333Z,95.60
2022-09-14T23:04:14.651Z,95.55
2022-09-14T23:06:47.852Z,95.80
2022-09-14T23:09:19.254Z,95.29
2022-09-14T23:11:46.849Z,95.25
2022-09-14T23:14:16.249Z,95.21
2022-09-14T23:16:45.128Z,95.01
2022-09-14T23:19:17.301Z,95.31
2022-09-14T23:21:45.332Z,95.63
2022-09-14T23:24:12.841Z,95.95
2022-09-14T23:26:40.227Z,95.98
2022-09-14T23:29:14.743Z,96.12
2022-09-14T23:31:41.986Z,96.47
2022-09-14T23:34:09.516Z,96.74
2022-09-14T23:36:36.798Z,96.92
2022-09-14T23:39:04.490Z,96.92
2022-09-14T23:41:32.361Z,96.99
2022-09-14T23:43:59.788Z,97.08
2022-09-14T23:46:27.093Z,97.72
2022-09-14T23:48:54.491Z,98.42
2022-09-14T23:51:22.083Z,99.00
2022-09-14T23:53:49.703Z,99.07
2022-09-14T23:56:16.937Z,99.60
2022-09-14T23:58:44.654Z,99.66
